createdAt,value
2022-10-03T00:00:03.883Z,0.10
2022-10-03T00:03:29.600Z,0.10
2022-10-03T00:06:30.680Z,0.10
2022-10-03T00:09:37.401Z,0.10
2022-10-03T00:12:47.620Z,0.10
2022-10-03T00:15:40.981Z,0.10
2022-10-03T00:18:37.355Z,0.20
2022-10-03T00:21:43.282Z,0.10
2022-10-03T00:24:42.048Z,0.20
2022-10-03T00:27:35.521Z,0.00
2022-10-03T00:30:26.238Z,0.10
2022-10-03T00:33:20.845Z,0.10
2022-10-03T00:36:13.512Z,0.20
2022-10-03T00:39:16.025Z,0.00
2022-10-03T00:42:39.959Z,0.10
2022-10-03T00:45:49.684Z,0.22
2022-10-03T00:49:16.716Z,0.20
2022-10-03T00:52:17.057Z,0.20
2022-10-03T00:55:16.823Z,0.15
2022-10-03T00:58:25.920Z,0.10
2022-10-03T01:01:31.482Z,0.20
2022-10-03T01:04:32.272Z,0.05
2022-10-03T01:07:33.482Z,0.10
2022-10-03T01:10:24.891Z,0.03
2022-10-03T01:13:24.858Z,0.20
2022-10-03T01:16:21.492Z,0.17
2022-10-03T01:19:27.306Z,0.10
2022-10-03T01:22:31.421Z,0.00
2022-10-03T01:25:20.993Z,0.10
2022-10-03T01:28:57.297Z,0.20
2022-10-03T01:31:50.332Z,0.10
2022-10-03T01:34:45.103Z,0.15
2022-10-03T01:37:38.623Z,0.05
2022-10-03T01:40:30.958Z,0.10
2022-10-03T01:43:22.137Z,0.30
2022-10-03T01:46:18.260Z,0.20
2022-10-03T01:49:13.489Z,0.20
2022-10-03T01:52:06.560Z,0.00
2022-10-03T01:55:05.307Z,0.20
2022-10-03T01:58:01.116Z,0.15
2022-10-03T02:00:57.548Z,0.10
2022-10-03T02:03:54.845Z,0.25
2022-10-03T02:06:50.208Z,0.20
2022-10-03T02:09:46.692Z,0.10
2022-10-03T02:12:38.837Z,0.20
2022-10-03T02:15:30.214Z,0.10
2022-10-03T02:18:24.749Z,0.10
2022-10-03T02:21:21.010Z,0.20
2022-10-03T02:24:27.245Z,0.17
2022-10-03T02:27:34.351Z,0.30
2022-10-03T02:30:23.535Z,0.10
2022-10-03T02:34:04.273Z,0.10
2022-10-03T02:37:25.698Z,0.00
2022-10-03T02:40:33.071Z,0.28
2022-10-03T02:43:49.926Z,0.13
2022-10-03T02:47:05.744Z,0.10
2022-10-03T02:50:38.962Z,0.15
2022-10-03T02:53:54.527Z,0.10
2022-10-03T02:57:05.145Z,0.10
2022-10-03T03:00:07.117Z,0.20
2022-10-03T03:03:30.975Z,0.10
2022-10-03T03:06:33.238Z,0.00
2022-10-03T03:09:38.662Z,0.15
2022-10-03T03:13:09.396Z,0.10
2022-10-03T03:16:13.591Z,0.15
2022-10-03T03:19:22.890Z,0.10
2022-10-03T03:22:25.334Z,0.10
2022-10-03T03:25:45.053Z,0.10
2022-10-03T03:28:43.428Z,0.20
2022-10-03T03:31:36.050Z,0.10
2022-10-03T03:34:27.666Z,0.20
2022-10-03T03:37:23.015Z,0.30
2022-10-03T03:40:21.230Z,0.10
2022-10-03T03:43:24.809Z,0.30
2022-10-03T03:46:26.507Z,0.10
2022-10-03T03:49:29.457Z,0.10
2022-10-03T03:52:36.043Z,0.20
2022-10-03T03:55:43.088Z,0.17
2022-10-03T03:58:41.895Z,0.25
2022-10-03T04:01:49.556Z,0.30
2022-10-03T04:04:52.043Z,0.10
2022-10-03T04:07:50.727Z,0.22
2022-10-03T04:10:54.582Z,0.10
2022-10-03T04:14:16.811Z,0.10
2022-10-03T04:17:34.728Z,0.10
2022-10-03T04:20:35.809Z,0.10
2022-10-03T04:23:38.012Z,0.20
2022-10-03T04:26:39.848Z,0.13
2022-10-03T04:29:44.338Z,0.20
2022-10-03T04:32:47.762Z,0.25
2022-10-03T04:36:10.359Z,0.47
2022-10-03T04:39:08.393Z,0.10
2022-10-03T04:42:00.521Z,0.20
2022-10-03T04:45:04.725Z,0.13
2022-10-03T04:47:55.218Z,0.28
2022-10-03T04:50:46.762Z,0.17
2022-10-03T04:53:46.110Z,0.10
2022-10-03T04:56:42.193Z,0.17
2022-10-03T04:59:38.206Z,0.10
2022-10-03T05:02:43.488Z,0.00
2022-10-03T05:05:43.513Z,0.10
2022-10-03T05:08:37.993Z,0.15
2022-10-03T05:11:38.224Z,0.15
2022-10-03T05:14:34.598Z,0.17
2022-10-03T05:17:26.674Z,0.10
2022-10-03T05:20:39.728Z,0.10
2022-10-03T05:23:40.103Z,0.10
2022-10-03T05:26:45.585Z,0.40
2022-10-03T05:29:41.051Z,0.10
2022-10-03T05:32:34.396Z,0.30
2022-10-03T05:35:31.114Z,0.15
2022-10-03T05:39:03.389Z,0.30
2022-10-03T05:42:11.174Z,0.15
2022-10-03T05:45:05.802Z,0.15
2022-10-03T05:47:59.319Z,0.20
2022-10-03T05:51:13.795Z,0.20
2022-10-03T05:54:49.267Z,0.10
2022-10-03T05:57:54.588Z,0.10
2022-10-03T06:00:57.416Z,0.20
2022-10-03T06:04:05.771Z,0.20
2022-10-03T06:07:07.883Z,0.20
2022-10-03T06:10:28.111Z,0.00
2022-10-03T06:13:21.824Z,0.10
2022-10-03T06:16:23.097Z,0.30
2022-10-03T06:19:22.299Z,0.10
2022-10-03T06:22:37.029Z,0.10
2022-10-03T06:26:02.694Z,0.40
2022-10-03T06:29:26.947Z,0.00
2022-10-03T06:32:55.997Z,0.20
2022-10-03T06:36:21.277Z,0.13
2022-10-03T06:39:42.798Z,0.10
2022-10-03T06:42:47.466Z,0.10
2022-10-03T06:46:08.505Z,0.10
2022-10-03T06:49:20.893Z,0.20
2022-10-03T06:52:25.367Z,0.10
2022-10-03T06:55:47.094Z,0.00
2022-10-03T06:59:09.031Z,0.10
2022-10-03T07:02:08.047Z,0.10
2022-10-03T07:05:40.699Z,0.20
2022-10-03T07:09:14.026Z,0.10
2022-10-03T07:12:16.864Z,0.10
2022-10-03T07:15:38.149Z,1.02
2022-10-03T07:19:20.634Z,0.10
2022-10-03T07:22:44.692Z,0.20
2022-10-03T07:26:10.782Z,0.10
2022-10-03T07:29:17.458Z,0.10
2022-10-03T07:32:19.730Z,0.20
2022-10-03T07:35:23.030Z,0.20
2022-10-03T07:38:58.588Z,0.17
2022-10-03T07:42:25.730Z,0.45
2022-10-03T07:45:41.847Z,0.30
2022-10-03T07:48:57.357Z,0.32
2022-10-03T07:51:58.521Z,0.77
2022-10-03T07:55:04.704Z,1.10
2022-10-03T07:58:07.369Z,1.15
2022-10-03T08:01:09.864Z,1.15
2022-10-03T08:04:18.623Z,1.30
2022-10-03T08:07:19.566Z,1.55
2022-10-03T08:10:40.914Z,0.93
2022-10-03T08:13:38.974Z,1.33
2022-10-03T08:16:46.334Z,0.60
2022-10-03T08:19:53.713Z,1.23
2022-10-03T08:22:47.864Z,0.70
2022-10-03T08:25:51.546Z,0.93
2022-10-03T08:28:52.038Z,0.90
2022-10-03T08:31:59.526Z,1.25
2022-10-03T08:35:06.772Z,1.25
2022-10-03T08:38:17.847Z,1.00
2022-10-03T08:41:55.557Z,0.75
2022-10-03T08:45:15.559Z,0.80
2022-10-03T08:48:41.919Z,0.85
2022-10-03T08:51:59.101Z,0.70
2022-10-03T08:55:26.026Z,0.45
2022-10-03T08:58:45.539Z,0.50
2022-10-03T09:01:50.281Z,1.00
2022-10-03T09:05:06.466Z,0.85
2022-10-03T09:08:33.738Z,0.50
2022-10-03T09:11:33.534Z,0.70
2022-10-03T09:14:34.485Z,0.88
2022-10-03T09:17:38.052Z,0.75
2022-10-03T09:20:56.875Z,0.60
2022-10-03T09:23:57.982Z,0.45
2022-10-03T09:27:12.462Z,0.80
2022-10-03T09:30:19.919Z,0.75
2022-10-03T09:33:44.631Z,0.50
2022-10-03T09:36:56.629Z,0.80
2022-10-03T09:40:30.629Z,0.52
2022-10-03T09:43:57.921Z,0.70
2022-10-03T09:47:28.104Z,0.32
2022-10-03T09:50:52.997Z,0.45
2022-10-03T09:54:23.702Z,0.80
2022-10-03T09:57:40.212Z,0.50
2022-10-03T10:00:33.727Z,0.60
2022-10-03T10:03:44.019Z,0.68
2022-10-03T10:07:06.120Z,0.50
2022-10-03T10:10:06.490Z,0.80
2022-10-03T10:13:24.956Z,0.70
2022-10-03T10:16:25.800Z,0.60
2022-10-03T10:19:51.333Z,1.00
2022-10-03T10:23:16.381Z,0.90
2022-10-03T10:26:34.344Z,1.00
2022-10-03T10:30:02.108Z,0.77
2022-10-03T10:33:27.319Z,1.00
2022-10-03T10:37:02.953Z,0.65
2022-10-03T10:40:21.664Z,0.75
2022-10-03T10:43:38.395Z,0.95
2022-10-03T10:47:03.685Z,1.17
2022-10-03T10:50:27.980Z,0.98
2022-10-03T10:54:08.445Z,0.73
2022-10-03T10:57:17.007Z,1.13
2022-10-03T11:00:16.167Z,1.10
2022-10-03T11:03:33.776Z,1.42
2022-10-03T11:07:01.365Z,0.90
2022-10-03T11:10:31.018Z,1.50
2022-10-03T11:13:55.888Z,1.10
2022-10-03T11:17:08.118Z,1.20
2022-10-03T11:20:41.177Z,3.22
2022-10-03T11:23:56.817Z,1.30
2022-10-03T11:27:26.710Z,1.02
2022-10-03T11:30:24.197Z,1.40
2022-10-03T11:33:53.814Z,1.20
2022-10-03T11:37:11.276Z,1.10
2022-10-03T11:40:13.922Z,1.45
2022-10-03T11:43:50.058Z,1.13
2022-10-03T11:47:02.408Z,1.25
2022-10-03T11:50:22.676Z,1.23
2022-10-03T11:53:16.358Z,0.90
2022-10-03T11:56:17.332Z,0.90
2022-10-03T11:59:31.797Z,1.15
2022-10-03T12:02:40.634Z,0.70
2022-10-03T12:05:41.334Z,0.75
2022-10-03T12:08:50.551Z,0.90
2022-10-03T12:11:45.328Z,1.15
2022-10-03T12:14:36.445Z,0.90
2022-10-03T12:17:32.128Z,1.10
2022-10-03T12:20:26.820Z,0.77
2022-10-03T12:23:28.909Z,1.02
2022-10-03T12:26:19.805Z,0.93
2022-10-03T12:29:12.388Z,0.68
2022-10-03T12:32:21.238Z,0.70
2022-10-03T12:35:20.630Z,0.60
2022-10-03T12:38:19.001Z,0.77
2022-10-03T12:41:18.335Z,0.70
2022-10-03T12:44:18.424Z,0.90
2022-10-03T12:47:37.617Z,0.68
2022-10-03T12:50:47.735Z,0.65
2022-10-03T12:53:50.786Z,1.05
2022-10-03T12:56:46.499Z,1.10
2022-10-03T12:59:42.967Z,1.00
2022-10-03T13:02:38.946Z,0.80
2022-10-03T13:06:01.906Z,0.95
2022-10-03T13:09:12.146Z,0.80
2022-10-03T13:12:07.254Z,0.50
2022-10-03T13:15:34.194Z,0.85
2022-10-03T13:18:36.222Z,0.63
2022-10-03T13:21:45.990Z,0.85
2022-10-03T13:24:40.019Z,0.90
2022-10-03T13:27:37.053Z,0.98
2022-10-03T13:30:27.152Z,1.02
2022-10-03T13:33:20.741Z,0.80
2022-10-03T13:36:16.950Z,1.08
2022-10-03T13:39:14.614Z,0.88
2022-10-03T13:42:11.979Z,0.60
2022-10-03T13:45:04.213Z,0.88
2022-10-03T13:47:55.997Z,0.68
2022-10-03T13:50:51.284Z,0.88
2022-10-03T13:53:55.123Z,0.90
2022-10-03T13:56:54.569Z,0.40
2022-10-03T13:59:55.130Z,0.95
2022-10-03T14:02:58.991Z,0.55
2022-10-03T14:06:02.154Z,0.60
2022-10-03T14:09:06.629Z,0.80
2022-10-03T14:12:02.370Z,0.68
2022-10-03T14:15:00.531Z,0.68
2022-10-03T14:17:53.300Z,0.75
2022-10-03T14:21:20.583Z,0.65
2022-10-03T14:24:22.098Z,0.77
2022-10-03T14:27:27.719Z,0.68
2022-10-03T14:30:18.775Z,0.52
2022-10-03T14:33:17.140Z,0.40
2022-10-03T14:36:18.314Z,1.08
2022-10-03T14:39:25.933Z,0.60
2022-10-03T14:42:33.939Z,0.95
2022-10-03T14:45:26.441Z,0.55
2022-10-03T14:48:17.929Z,0.82
2022-10-03T14:51:14.555Z,0.80
2022-10-03T14:54:05.728Z,0.60
2022-10-03T14:56:54.591Z,0.60
2022-10-03T14:59:52.169Z,0.73
2022-10-03T15:02:48.333Z,0.65
2022-10-03T15:05:38.453Z,0.65
2022-10-03T15:08:31.214Z,0.63
2022-10-03T15:11:26.582Z,0.55
2022-10-03T15:14:15.259Z,0.65
2022-10-03T15:17:06.984Z,0.55
2022-10-03T15:19:57.168Z,0.93
2022-10-03T15:22:50.739Z,0.60
2022-10-03T15:25:41.213Z,0.70
2022-10-03T15:28:32.706Z,0.55
2022-10-03T15:31:27.926Z,0.57
2022-10-03T15:34:21.574Z,0.50
2022-10-03T15:37:16.646Z,0.70
2022-10-03T15:40:09.528Z,0.57
2022-10-03T15:43:05.910Z,0.50
2022-10-03T15:45:54.517Z,0.32
2022-10-03T15:48:47.499Z,0.60
2022-10-03T15:51:39.598Z,0.50
2022-10-03T15:54:32.563Z,0.30
2022-10-03T15:57:26.964Z,0.70
2022-10-03T16:00:42.382Z,0.50
2022-10-03T16:03:40.980Z,0.43
2022-10-03T16:06:36.457Z,0.55
2022-10-03T16:09:42.755Z,0.50
2022-10-03T16:13:01.594Z,0.40
2022-10-03T16:16:18.162Z,0.55
2022-10-03T16:19:44.061Z,0.50
2022-10-03T16:22:44.560Z,0.77
2022-10-03T16:25:47.644Z,0.63
2022-10-03T16:28:44.793Z,0.30
2022-10-03T16:31:40.680Z,0.50
2022-10-03T16:34:32.911Z,0.70
2022-10-03T16:37:27.684Z,0.88
2022-10-03T16:40:24.576Z,1.02
2022-10-03T16:43:19.836Z,1.02
2022-10-03T16:46:15.225Z,1.27
2022-10-03T16:49:29.935Z,1.27
2022-10-03T16:52:21.955Z,1.30
2022-10-03T16:55:18.518Z,1.15
2022-10-03T16:58:18.642Z,1.08
2022-10-03T17:01:29.828Z,0.98
2022-10-03T17:04:26.970Z,0.93
2022-10-03T17:07:19.054Z,0.80
2022-10-03T17:10:24.941Z,1.05
2022-10-03T17:13:17.725Z,1.33
2022-10-03T17:16:14.552Z,1.10
2022-10-03T17:19:15.117Z,1.10
2022-10-03T17:22:08.820Z,0.82
2022-10-03T17:25:02.986Z,1.00
2022-10-03T17:27:52.140Z,0.93
2022-10-03T17:30:46.775Z,1.30
2022-10-03T17:33:42.445Z,1.02
2022-10-03T17:36:45.881Z,0.98
2022-10-03T17:39:49.812Z,0.85
2022-10-03T17:42:43.386Z,0.60
2022-10-03T17:45:40.116Z,0.90
2022-10-03T17:48:36.624Z,1.00
2022-10-03T17:51:36.597Z,1.15
2022-10-03T17:54:29.270Z,1.02
2022-10-03T17:57:23.013Z,0.60
2022-10-03T18:00:19.474Z,1.13
2022-10-03T18:03:11.052Z,0.77
2022-10-03T18:06:01.547Z,1.23
2022-10-03T18:08:51.926Z,1.10
2022-10-03T18:11:43.750Z,0.70
2022-10-03T18:14:38.332Z,1.00
2022-10-03T18:17:34.473Z,0.90
2022-10-03T18:20:38.587Z,0.93
2022-10-03T18:23:53.786Z,0.95
2022-10-03T18:26:48.713Z,0.63
2022-10-03T18:29:38.389Z,0.68
2022-10-03T18:32:29.773Z,0.82
2022-10-03T18:35:22.419Z,0.38
2022-10-03T18:38:15.200Z,0.85
2022-10-03T18:41:05.053Z,0.73
2022-10-03T18:43:59.775Z,0.60
2022-10-03T18:46:52.753Z,0.60
2022-10-03T18:49:42.985Z,0.70
2022-10-03T18:52:33.602Z,0.60
2022-10-03T18:55:29.371Z,0.55
2022-10-03T18:58:20.954Z,0.57
2022-10-03T19:01:18.211Z,0.65
2022-10-03T19:04:09.379Z,0.52
2022-10-03T19:06:58.783Z,0.50
2022-10-03T19:10:19.760Z,0.40
2022-10-03T19:13:18.100Z,0.40
2022-10-03T19:16:29.724Z,0.30
2022-10-03T19:19:26.510Z,0.50
2022-10-03T19:22:17.845Z,0.50
2022-10-03T19:25:09.462Z,0.70
2022-10-03T19:28:01.000Z,0.20
2022-10-03T19:31:00.188Z,0.25
2022-10-03T19:33:51.324Z,0.35
2022-10-03T19:36:41.482Z,0.30
2022-10-03T19:39:32.491Z,0.60
2022-10-03T19:42:28.112Z,0.30
2022-10-03T19:45:17.197Z,0.38
2022-10-03T19:48:10.410Z,0.35
2022-10-03T19:51:13.370Z,0.32
2022-10-03T19:54:14.179Z,0.47
2022-10-03T19:57:04.497Z,0.20
2022-10-03T19:59:54.373Z,0.20
2022-10-03T20:02:44.101Z,0.22
2022-10-03T20:05:37.535Z,0.22
2022-10-03T20:08:28.767Z,0.20
2022-10-03T20:11:26.077Z,0.22
2022-10-03T20:14:16.655Z,0.30
2022-10-03T20:17:07.364Z,0.60
2022-10-03T20:19:58.462Z,0.40
2022-10-03T20:22:47.032Z,0.50
2022-10-03T20:25:38.675Z,0.13
2022-10-03T20:28:41.022Z,0.50
2022-10-03T20:31:30.764Z,0.20
2022-10-03T20:34:25.051Z,0.30
2022-10-03T20:37:27.945Z,0.15
2022-10-03T20:40:30.763Z,0.30
2022-10-03T20:43:39.081Z,0.10
2022-10-03T20:46:37.603Z,0.28
2022-10-03T20:49:30.028Z,0.20
2022-10-03T20:52:20.164Z,0.35
2022-10-03T20:55:20.316Z,0.13
2022-10-03T20:58:18.624Z,0.43
2022-10-03T21:01:10.849Z,0.15
2022-10-03T21:04:06.775Z,0.20
2022-10-03T21:07:00.134Z,0.10
2022-10-03T21:09:51.046Z,0.20
2022-10-03T21:12:42.663Z,0.20
2022-10-03T21:15:38.450Z,0.22
2022-10-03T21:18:35.555Z,0.25
2022-10-03T21:21:26.901Z,0.52
2022-10-03T21:24:17.722Z,0.20
2022-10-03T21:27:09.138Z,0.30
2022-10-03T21:30:00.128Z,0.20
2022-10-03T21:33:10.849Z,0.10
2022-10-03T21:36:10.716Z,0.10
2022-10-03T21:39:04.926Z,0.08
2022-10-03T21:42:02.587Z,0.10
2022-10-03T21:45:11.593Z,0.20
2022-10-03T21:48:04.812Z,0.20
2022-10-03T21:50:56.740Z,0.20
2022-10-03T21:53:51.904Z,0.10
2022-10-03T21:56:57.681Z,0.10
2022-10-03T22:00:06.693Z,0.40
2022-10-03T22:03:03.439Z,0.35
2022-10-03T22:05:54.543Z,0.20
2022-10-03T22:08:49.197Z,0.13
2022-10-03T22:11:45.932Z,0.20
2022-10-03T22:14:49.251Z,0.17
2022-10-03T22:17:43.029Z,0.10
2022-10-03T22:20:33.460Z,0.20
2022-10-03T22:23:29.816Z,0.10
2022-10-03T22:26:22.603Z,0.10
2022-10-03T22:29:22.700Z,0.10
2022-10-03T22:32:16.974Z,0.20
2022-10-03T22:35:17.698Z,0.10
2022-10-03T22:38:21.602Z,0.10
2022-10-03T22:41:16.633Z,0.10
2022-10-03T22:44:08.353Z,0.00
2022-10-03T22:46:59.924Z,0.10
2022-10-03T22:49:51.570Z,0.03
2022-10-03T22:52:42.983Z,0.20
2022-10-03T22:55:31.991Z,0.13
2022-10-03T22:58:21.415Z,0.20
2022-10-03T23:01:09.996Z,0.00
2022-10-03T23:03:59.866Z,0.20
2022-10-03T23:07:07.122Z,0.00
2022-10-03T23:10:03.861Z,0.10
2022-10-03T23:12:57.719Z,0.00
2022-10-03T23:15:49.433Z,0.20
2022-10-03T23:18:48.397Z,0.10
2022-10-03T23:21:48.004Z,0.20
2022-10-03T23:24:40.571Z,0.10
2022-10-03T23:27:50.598Z,0.10
2022-10-03T23:30:50.319Z,0.20
2022-10-03T23:33:52.674Z,0.30
2022-10-03T23:37:01.958Z,0.10
2022-10-03T23:40:28.939Z,0.08
2022-10-03T23:43:31.448Z,0.40
2022-10-03T23:46:21.553Z,0.20
2022-10-03T23:49:09.971Z,0.22
2022-10-03T23:51:58.634Z,0.13
2022-10-03T23:54:49.194Z,0.20
2022-10-03T23:57:43.397Z,0.10
